Latest Weather Observations for Albury

IDN60801

Issued at 5:33 am EDT Sunday 2 October 2016 (issued every 30 minutes, with the page automatically refreshed every 10 minutes)

About weather observations | Map of weather stations | Latest weather observations for NSW | Other Formats
Station Details ID: 072160 Name: ALBURY AIRPORT AWS Lat: -36.07 Lon: 146.95 Height: 163.5 m
Data from the previous 72 hours. | See also: Recent months at Albury
Date/Time
EDT
Temp
°C
App
Temp
°C
Dew
Point
°C
Rel
Hum
%
Delta-T
°C
Wind Press
QNH
hPa
Press
MSL
hPa
Rain since
9am
mm
Dir  Spd
km/h
Gust
km/h
Spd
kts
Gust
kts
02/05:30am 6.8 6.1 6.8 100 0.0 CALM 0 0 0 0 1011.3 1011.1 0.8
02/05:15am 7.2 6.6 7.2 100 0.0 CALM 0 0 0 0 1011.4 1011.2 0.8
02/05:00am 7.2 6.5 7.1 99 0.0 CALM 0 0 0 0 1011.4 1011.2 0.8
02/04:30am 7.5 5.8 7.4 99 0.0 NNE 6 7 3 4 1011.2 1011.0 0.8
02/04:00am 7.9 6.2 7.6 98 0.1 E 6 7 3 4 1011.1 1010.9 0.8
02/03:30am 8.4 6.6 8.1 98 0.1 SSE 7 9 4 5 1011.0 1010.8 0.8
02/03:00am 9.3 7.6 8.2 93 0.5 ENE 7 9 4 5 1010.8 1010.6 0.8
02/01:30am 9.3 7.8 8.4 94 0.4 SE 6 7 3 4 1010.8 1010.6 0.8
02/01:00am 10.0 8.9 8.4 90 0.8 NE 4 9 2 5 1010.9 1010.7 0.8
02/12:30am 10.4 8.8 8.7 89 0.8 ESE 7 9 4 5 1011.2 1011.0 0.8
02/12:00am 11.3 9.8 9.0 86 1.2 ENE 7 9 4 5 1011.5 1011.3 0.8
 
Date/Time
EDT
Temp
°C
App
Temp
°C
Dew
Point
°C
Rel
Hum
%
Delta-T
°C
Wind Press
QNH
hPa
Press
MSL
hPa
Rain since
9am
mm
Dir  Spd
km/h
Gust
km/h
Spd
kts
Gust
kts
01/11:30pm 11.1 9.8 9.2 88 1.0 E 6 9 3 5 1011.7 1011.5 0.8
01/11:00pm 11.2 9.8 9.5 89 0.9 SE 7 9 4 5 1011.8 1011.6 0.8
01/10:30pm 11.4 10.8 9.1 86 1.2 NNW 2 6 1 3 1011.7 1011.5 0.8
01/10:00pm 11.3 9.8 9.0 86 1.2 NW 7 9 4 5 1011.8 1011.6 0.8
01/09:30pm 11.4 9.5 9.1 86 1.2 NW 9 11 5 6 1011.7 1011.5 0.8
01/09:00pm 11.8 9.9 9.2 84 1.3 NNW 9 11 5 6 1011.3 1011.1 0.8
01/08:30pm 12.1 10.6 9.3 83 1.4 NNE 7 9 4 5 1010.9 1010.7 0.8
01/08:00pm 12.7 11.2 9.2 79 1.8 N 7 13 4 7 1010.7 1010.5 0.8
01/07:30pm 12.6 10.7 9.2 80 1.7 N 9 13 5 7 1010.6 1010.4 0.8
01/07:00pm 13.0 11.1 8.9 76 2.1 N 9 15 5 8 1010.2 1010.0 0.8
01/06:30pm 13.2 10.0 8.5 73 2.4 NW 15 20 8 11 1010.2 1010.0 0.8
01/06:00pm 13.5 11.1 8.6 72 2.5 NNW 11 15 6 8 1009.6 1009.4 0.8
01/05:30pm 13.5 11.6 9.2 75 2.2 NW 9 13 5 7 1009.5 1009.3 0.8
01/05:00pm 13.5 11.7 9.4 76 2.1 NNW 9 13 5 7 1008.9 1008.8 0.8
01/04:30pm 13.6 10.6 9.3 75 2.2 NNW 15 19 8 10 1008.5 1008.4 0.8
01/04:00pm 13.8 10.0 9.0 73 2.5 NW 19 26 10 14 1008.2 1008.0 0.8
01/03:30pm 14.2 9.9 9.2 72 2.6 NW 22 30 12 16 1008.1 1007.9 0.8
01/03:13pm 13.4 9.7 9.3 76 2.1 NW 19 26 10 14 1008.0 1007.8 0.8
01/03:00pm 13.5 9.7 9.7 78 2.0 NW 20 28 11 15 1007.9 1007.7 0.8
01/02:58pm 13.5 9.7 9.7 78 2.0 NW 20 28 11 15 1007.9 1007.7 0.8
01/02:30pm 13.0 9.1 9.4 79 1.8 WNW 20 26 11 14 1007.8 1007.6 0.8
01/02:06pm 13.1 8.5 9.5 79 1.8 WNW 24 37 13 20 1007.6 1007.4 0.8
01/02:00pm 12.9 9.1 9.7 81 1.7 NW 20 28 11 15 1007.7 1007.5 0.8
01/01:53pm 12.8 9.1 10.0 83 1.5 NW 20 28 11 15 1007.7 1007.5 0.8
01/01:51pm 12.7 8.9 9.7 82 1.5 WNW 20 28 11 15 1007.7 1007.5 0.8
01/01:30pm 12.8 9.2 10.5 86 1.2 NW 20 33 11 18 1007.6 1007.4 0.8
01/01:13pm 12.1 9.5 10.8 92 0.7 WNW 15 19 8 10 1007.5 1007.3 0.8
01/01:02pm 12.1 8.7 10.7 91 0.7 WNW 19 24 10 13 1007.4 1007.2 0.8
01/01:00pm 12.1 8.7 10.7 91 0.7 WNW 19 24 10 13 1007.4 1007.2 0.8
01/12:31pm 12.3 7.8 9.9 85 1.2 WNW 24 33 13 18 1007.3 1007.1 0.8
01/12:30pm 12.3 7.7 9.7 84 1.3 WNW 24 33 13 18 1007.3 1007.1 0.8
01/12:27pm 12.4 8.1 9.2 81 1.6 WNW 22 33 12 18 1007.3 1007.1 0.8
01/12:00pm 12.3 9.0 11.0 92 0.7 WNW 19 24 10 13 1007.3 1007.1 0.8
01/11:53am 11.7 8.1 10.4 92 0.7 WNW 20 32 11 17 1007.3 1007.1 0.8
01/11:30am 11.4 7.9 10.3 93 0.6 NW 19 28 10 15 1007.2 1007.0 0.8
01/11:28am 11.5 8.0 10.2 92 0.7 NW 19 26 10 14 1007.2 1007.0 0.8
01/11:11am 11.8 8.1 10.0 89 0.9 WNW 20 32 11 17 1007.1 1006.9 0.8
01/11:00am 11.5 8.1 10.4 93 0.6 WNW 19 28 10 15 1007.0 1006.8 0.8
01/10:50am 11.4 7.9 10.3 93 0.6 WNW 19 24 10 13 1007.1 1006.9 0.6
01/10:32am 11.5 8.1 10.4 93 0.6 WNW 19 24 10 13 1007.0 1006.8 0.6
01/10:30am 11.4 7.9 10.1 92 0.7 WNW 19 24 10 13 1007.0 1006.8 0.6
01/10:00am 10.9 7.3 10.4 97 0.3 WNW 20 30 11 16 1006.7 1006.5 0.6
01/09:48am 10.9 6.4 10.0 94 0.5 WNW 24 33 13 18 1006.5 1006.5 0.2
01/09:44am 11.0 6.9 10.1 94 0.5 WNW 22 33 12 18 1006.5 1006.5 0.2
01/09:30am 11.1 7.1 10.5 96 0.3 WNW 22 35 12 19 1006.4 1006.4 0.2
01/09:00am 11.0 8.0 10.7 98 0.2 WNW 17 24 9 13 1006.2 1006.2 9.0
01/08:30am 10.7 6.2 9.9 95 0.4 WNW 24 33 13 18 1005.7 1005.7 9.0
01/08:14am 10.7 6.2 9.9 95 0.4 WNW 24 39 13 21 1005.5 1005.5 9.0
01/08:04am 10.8 5.9 10.0 95 0.4 WNW 26 35 14 19 1005.3 1005.3 9.0
01/08:00am 10.7 5.8 9.8 94 0.5 WNW 26 35 14 19 1005.3 1005.3 9.0
01/07:49am 10.7 5.5 10.1 96 0.3 WNW 28 46 15 25 1005.0 1005.0 9.0
01/07:30am 10.7 6.6 10.2 97 0.3 WNW 22 32 12 17 1004.9 1004.9 8.8
01/07:17am 10.6 5.3 9.8 95 0.4 WNW 28 46 15 25 1004.7 1004.7 8.6
01/07:14am 10.7 4.6 9.8 94 0.5 WNW 32 46 17 25 1004.6 1004.6 8.6
01/07:10am 10.9 4.8 9.7 92 0.6 W 32 46 17 25 1004.5 1004.5 8.6
01/07:00am 10.8 5.1 9.9 94 0.5 WNW 30 46 16 25 1004.3 1004.3 8.6
01/06:59am 10.8 5.5 10.0 95 0.4 WNW 28 46 15 25 1004.3 1004.3 8.6
01/06:30am 10.8 7.8 10.8 100 0.0 WNW 17 26 9 14 1003.7 1003.7 8.4
01/06:00am 10.2 8.2 10.2 100 0.0 NNW 11 17 6 9 1003.2 1003.2 7.6
01/05:30am 9.7 8.0 9.7 100 0.0 NNE 9 13 5 7 1002.7 1002.8 6.6
01/05:00am 9.7 8.5 9.7 100 0.0 NE 6 7 3 4 1002.4 1002.5 5.2
01/04:54am 9.7 8.5 9.7 100 0.0 NE 6 7 3 4 1002.4 1002.5 4.6
01/04:36am 9.7 8.3 9.6 99 0.1 NE 7 9 4 5 1002.2 1002.2 3.6
01/04:30am 9.7 8.3 9.4 98 0.2 NE 7 9 4 5 1002.0 1002.0 3.6
01/04:00am 9.7 9.5 9.2 97 0.3 CALM 0 0 0 0 1001.7 1001.7 3.6
01/03:37am 9.7 9.5 9.2 97 0.2 CALM 0 0 0 0 1001.6 1001.6 3.6
01/03:30am 9.8 9.3 9.2 96 0.3 NNW 2 6 1 3 1001.6 1001.6 3.6
01/03:00am 9.7 8.2 9.2 97 0.3 NNW 7 11 4 6 1001.7 1001.7 3.6
01/02:30am 9.8 9.7 9.3 97 0.3 CALM 0 6 0 3 1001.6 1001.6 3.6
01/02:00am 9.6 9.5 9.5 99 0.1 CALM 0 2 0 1 1001.5 1001.5 3.6
01/01:30am 9.4 8.8 8.9 97 0.2 SW 2 6 1 3 1001.6 1001.6 3.6
01/01:00am 9.5 9.3 8.9 96 0.3 CALM 0 0 0 0 1001.6 1001.6 3.6
01/12:42am 9.6 9.3 8.8 95 0.4 CALM 0 0 0 0 1001.5 1001.5 3.6
01/12:30am 9.8 9.6 9.0 95 0.4 CALM 0 0 0 0 1001.4 1001.4 3.6
01/12:27am 9.7 9.5 9.1 96 0.3 CALM 0 0 0 0 1001.5 1001.5 3.4
01/12:00am 9.8 9.2 8.9 94 0.4 WNW 2 6 1 3 1001.3 1001.3 3.4
 
Date/Time
EDT
Temp
°C
App
Temp
°C
Dew
Point
°C
Rel
Hum
%
Delta-T
°C
Wind Press
QNH
hPa
Press
MSL
hPa
Rain since
9am
mm
Dir  Spd
km/h
Gust
km/h
Spd
kts
Gust
kts
30/11:51pm 9.8 8.4 8.9 94 0.4 WNW 6 6 3 3 1001.2 1001.2 3.4
30/11:43pm 9.9 8.9 9.0 94 0.4 NW 4 6 2 3 1001.1 1001.1 3.4
30/11:30pm 9.9 8.9 8.7 92 0.6 NW 4 6 2 3 1001.0 1001.0 3.4
30/11:00pm 10.0 8.4 8.6 91 0.7 N 7 9 4 5 1000.8 1000.8 3.4
30/10:30pm 9.9 8.2 8.5 91 0.7 N 7 13 4 7 1000.9 1000.9 3.4
30/10:00pm 9.6 8.1 8.5 93 0.5 NNE 6 7 3 4 1000.5 1000.5 3.4
30/09:30pm 9.3 8.9 8.4 94 0.4 CALM 0 0 0 0 1000.4 1000.4 3.4
30/09:16pm 9.4 7.8 8.2 92 0.6 ENE 6 7 3 4 1000.2 1000.2 3.4
30/09:00pm 9.3 7.6 7.7 90 0.8 N 6 9 3 5 1000.2 1000.2 3.4
30/08:30pm 9.9 7.0 8.0 88 0.9 NNW 13 17 7 9 1000.0 1000.0 3.4
30/08:00pm 10.8 6.6 8.2 84 1.3 NW 20 26 11 14 1000.0 1000.0 3.4
30/07:30pm 11.0 7.4 8.2 83 1.4 NW 17 20 9 11 999.6 999.6 3.4
30/07:00pm 11.2 8.4 8.4 83 1.4 NNW 13 28 7 15 999.0 999.0 3.4
30/06:30pm 11.2 8.7 8.4 83 1.4 N 11 17 6 9 998.4 998.4 3.4
30/06:00pm 10.9 8.8 8.3 84 1.3 NNW 9 13 5 7 997.9 997.9 3.4
30/05:30pm 11.1 8.6 8.3 83 1.4 NW 11 13 6 7 997.7 997.7 3.4
30/05:00pm 11.3 7.3 8.2 81 1.5 WNW 19 26 10 14 997.6 997.6 3.2
30/04:30pm 12.0 7.7 7.9 76 2.0 NW 20 33 11 18 997.1 997.0 3.0
30/04:00pm 12.2 7.1 7.7 74 2.2 WNW 24 35 13 19 996.4 996.4 3.0
30/03:30pm 12.6 6.7 8.9 78 1.9 WNW 30 41 16 22 996.0 996.0 3.0
30/03:00pm 11.9 5.7 9.3 84 1.3 WNW 32 48 17 26 995.7 995.7 3.0
30/02:30pm 13.5 8.1 9.6 77 2.0 NW 28 46 15 25 995.3 995.3 3.0
30/02:29pm 13.2 7.6 8.9 75 2.2 NW 28 46 15 25 995.2 995.2 3.0
30/02:00pm 12.4 7.7 9.2 81 1.6 NW 24 37 13 20 995.1 995.1 3.0
30/01:36pm 11.8 7.6 9.9 88 1.0 WNW 22 33 12 18 994.9 994.9 3.0
30/01:30pm 10.9 6.1 8.7 86 1.1 WNW 24 46 13 25 995.0 995.0 3.0
30/01:21pm 11.7 7.9 8.9 83 1.4 NW 19 32 10 17 994.8 994.8 2.8
30/01:17pm 12.0 8.3 9.4 84 1.3 NW 19 32 10 17 994.7 994.7 2.8
30/01:11pm 11.6 7.6 9.0 84 1.3 NW 20 33 11 18 994.8 994.8 2.8
30/01:06pm 11.7 8.0 10.3 91 0.7 NW 20 33 11 18 994.9 994.9 2.8
30/01:00pm 10.8 6.2 8.2 84 1.3 NW 22 32 12 17 994.9 994.9 2.6
30/12:47pm 11.3 5.5 7.8 79 1.7 NW 28 46 15 25 994.7 994.7 2.4
30/12:30pm 12.4 7.0 8.1 75 2.1 WNW 26 35 14 19 994.4 994.4 2.4
30/12:00pm 11.0 5.8 8.8 86 1.1 WNW 26 39 14 21 994.4 994.4 2.4
30/11:45am 12.5 7.9 9.5 82 1.5 NW 24 33 13 18 994.2 994.2 2.2
30/11:30am 10.3 5.0 8.4 88 0.9 WNW 26 35 14 19 994.1 994.1 2.0
30/11:00am 10.6 6.1 8.7 88 1.0 W 22 33 12 18 994.0 994.0 1.4
30/10:48am 10.3 5.6 7.7 84 1.3 NW 22 43 12 23 993.9 993.9 1.4
30/10:38am 10.8 6.0 8.9 88 0.9 NW 24 32 13 17 993.8 993.8 1.2
30/10:30am 10.3 5.4 8.4 88 0.9 NW 24 35 13 19 993.8 993.8 1.2
30/10:26am 10.3 6.1 8.2 87 1.0 NNW 20 35 11 19 993.8 993.8 1.2
30/10:07am 11.6 8.5 8.8 83 1.4 NNW 15 20 8 11 993.5 993.5 0.8
30/10:00am 11.4 8.8 9.3 87 1.1 NW 13 17 7 9 993.5 993.5 0.8
30/09:32am 10.3 7.0 8.2 87 1.0 WNW 15 24 8 13 993.3 993.3 0.8
30/09:30am 10.3 7.1 8.6 89 0.8 WNW 15 20 8 11 993.3 993.3 0.8
30/09:00am 9.8 9.3 9.5 98 0.2 S 2 11 1 6 992.9 992.9 16.2
30/08:30am 9.7 8.8 9.4 98 0.2 SSE 4 7 2 4 992.7 992.7 15.2
30/08:26am 9.7 9.2 9.4 98 0.2 SE 2 6 1 3 992.7 992.7 15.2
30/08:00am 9.4 8.8 9.1 98 0.2 NE 2 6 1 3 992.5 992.5 14.4
30/07:46am 9.3 7.9 8.8 97 0.2 N 6 7 3 4 992.4 992.4 13.8
30/07:30am 9.2 7.6 8.6 96 0.3 NNE 7 9 4 5 992.3 992.3 13.0
30/07:24am 9.3 7.7 8.7 96 0.3 NNE 7 9 4 5 992.3 992.3 12.2
30/07:08am 9.3 7.2 8.4 94 0.4 N 9 11 5 6 992.2 992.2 11.8
30/07:00am 9.3 6.8 8.2 93 0.5 N 11 19 6 10 992.2 992.2 11.6
30/06:36am 9.4 7.3 8.2 92 0.6 NNW 9 17 5 9 992.1 992.0 11.6
30/06:30am 9.4 6.9 8.2 92 0.6 NNW 11 17 6 9 992.0 991.9 11.6
30/06:00am 9.4 6.2 8.3 93 0.5 NW 15 20 8 11 991.5 991.4 11.6
30/05:55am 9.4 6.2 8.5 94 0.4 NW 15 20 8 11 991.5 991.4 11.6
30/05:43am 9.4 5.6 8.9 97 0.2 NNW 19 28 10 15 991.3 991.2 11.6
30/05:30am 9.2 6.6 9.2 100 0.0 N 13 20 7 11 991.0 990.9 11.6
30/05:00am 9.0 5.9 9.0 100 0.0 NNE 15 24 8 13 990.7 990.6 11.4
30/04:30am 8.9 5.1 8.9 100 0.0 NNE 19 24 10 13 990.5 990.4 11.4
30/04:00am 8.6 5.1 8.6 100 0.0 NE 17 24 9 13 990.5 990.4 11.4
30/03:30am 8.6 6.2 8.5 99 0.0 NE 11 17 6 9 990.8 990.7 11.0
30/03:00am 8.6 5.3 8.2 97 0.2 NNE 15 20 8 11 991.2 991.1 10.2
30/02:59am 8.6 5.3 8.2 97 0.2 NNE 15 20 8 11 991.2 991.1 10.2
30/02:30am 8.6 4.6 8.2 97 0.2 NNE 19 26 10 14 991.7 991.6 10.0
30/02:27am 8.6 5.0 8.2 97 0.2 NNE 17 26 9 14 991.7 991.6 10.0
30/02:00am 8.5 4.3 8.1 97 0.2 NNE 20 28 11 15 992.1 992.0 10.0
30/01:40am 8.6 4.0 8.0 96 0.3 NNE 22 37 12 20 992.4 992.4 9.6
30/01:30am 8.5 3.5 7.9 96 0.3 NNE 24 35 13 19 992.5 992.5 9.6
30/01:19am 8.6 3.9 7.7 94 0.4 NNE 22 32 12 17 992.7 992.7 9.2
30/01:05am 8.7 4.6 7.8 94 0.4 NNE 19 26 10 14 992.9 992.9 8.8
30/01:03am 8.7 4.6 7.8 94 0.4 NNE 19 26 10 14 992.9 992.9 8.8
30/01:00am 8.7 5.0 7.8 94 0.4 NNE 17 22 9 12 993.0 993.0 8.8
30/12:30am 8.9 3.8 7.5 91 0.7 NNE 24 33 13 18 993.3 993.3 7.4
30/12:00am 9.8 5.2 6.7 81 1.5 N 20 33 11 18 993.6 993.6 6.8
 
Date/Time
EDT
Temp
°C
App
Temp
°C
Dew
Point
°C
Rel
Hum
%
Delta-T
°C
Wind Press
QNH
hPa
Press
MSL
hPa
Rain since
9am
mm
Dir  Spd
km/h
Gust
km/h
Spd
kts
Gust
kts
29/11:30pm 10.3 3.8 6.6 78 1.8 N 30 43 16 23 994.0 994.0 6.6
29/11:00pm 9.9 5.5 7.2 83 1.3 NNE 20 30 11 16 994.2 994.2 6.6
29/10:30pm 10.2 5.6 6.7 79 1.7 NNE 20 30 11 16 994.6 994.6 6.6
29/10:00pm 9.8 5.5 7.2 84 1.3 NNE 19 32 10 17 994.7 994.7 6.6
29/09:30pm 9.3 6.2 7.4 88 0.9 NE 13 20 7 11 995.0 995.0 6.6
29/09:00pm 9.2 5.3 7.3 88 0.9 NNE 17 24 9 13 995.4 995.4 6.4
29/08:30pm 8.8 6.0 7.1 89 0.8 NNE 11 17 6 9 995.7 995.7 6.2
29/08:00pm 8.7 5.5 7.0 89 0.8 NE 13 19 7 10 995.9 995.9 6.2
29/07:30pm 8.6 5.5 7.1 90 0.7 NE 13 20 7 11 995.8 995.8 6.0
29/07:00pm 8.9 6.1 6.9 87 1.0 N 11 17 6 9 995.6 995.6 6.0
29/06:30pm 8.8 3.5 6.6 86 1.0 NNW 24 37 13 20 995.2 995.2 5.8
29/06:08pm 9.5 4.1 6.4 81 1.5 NW 24 54 13 29 995.3 995.3 4.6
29/06:00pm 9.7 6.0 6.4 80 1.6 WNW 15 19 8 10 995.0 995.0 4.6
29/05:36pm 9.8 6.7 7.2 84 1.2 NW 13 24 7 13 994.6 994.6 4.0
29/05:30pm 9.8 7.4 6.9 82 1.4 NNW 9 24 5 13 994.5 994.5 4.0
29/05:18pm 9.7 6.9 6.8 82 1.4 N 11 17 6 9 994.3 994.3 4.0
29/05:00pm 10.0 6.5 7.4 84 1.3 NNW 15 26 8 14 994.5 994.5 4.0
29/04:30pm 10.5 6.9 6.6 77 1.8 NNW 15 24 8 13 993.3 993.3 3.2
29/04:00pm 13.5 8.6 5.2 57 3.9 N 20 32 11 17 993.1 993.1 2.8
29/03:30pm 14.6 9.1 5.9 56 4.2 N 24 33 13 18 993.2 993.2 2.8
29/03:00pm 13.9 8.4 6.0 59 3.8 N 24 39 13 21 993.1 993.1 2.8
29/02:30pm 13.8 8.9 6.7 62 3.5 N 22 33 12 18 993.2 993.2 2.8
29/02:00pm 13.4 8.8 6.7 64 3.3 N 20 30 11 16 993.6 993.6 2.8
29/01:30pm 13.5 8.0 6.1 61 3.5 NNW 24 32 13 17 993.7 993.7 2.8
29/01:00pm 13.0 8.5 5.9 62 3.4 NNW 19 33 10 18 994.2 994.2 2.8
29/12:30pm 12.8 7.9 5.2 60 3.6 NNW 20 28 11 15 994.5 994.5 2.8
29/12:00pm 11.5 7.2 7.2 75 2.1 NNW 19 26 10 14 994.6 994.6 2.8
29/11:30am 10.0 5.2 7.4 84 1.2 NNW 22 33 12 18 994.6 994.6 2.8
29/11:12am 9.5 3.2 7.4 87 1.0 NW 30 43 16 23 995.1 995.1 2.6
29/11:04am 9.8 2.7 7.9 88 0.9 WNW 35 56 19 30 995.0 995.0 2.4
29/11:02am 9.8 2.7 7.9 88 0.9 WNW 35 56 19 30 994.9 994.9 2.4
29/11:00am 9.8 2.6 7.7 87 1.0 WNW 35 56 19 30 994.9 994.9 2.4
29/10:55am 9.8 3.6 7.9 88 0.9 NW 30 52 16 28 994.8 994.8 2.4
29/10:51am 10.1 4.4 8.4 89 0.8 NW 28 41 15 22 994.6 994.6 2.2
29/10:47am 10.4 4.7 8.3 87 1.0 NNW 28 41 15 22 994.5 994.5 1.8
29/10:43am 10.7 5.7 8.1 84 1.3 NNW 24 39 13 21 994.3 994.3 1.4
29/10:33am 12.7 9.3 9.0 78 1.9 N 17 26 9 14 993.8 993.8 0.0
29/10:30am 12.9 9.5 9.2 78 1.9 NNW 17 28 9 15 993.8 993.8 0.0
29/10:00am 12.8 10.4 10.2 84 1.4 N 13 20 7 11 994.1 994.1 0.0
29/09:30am 11.6 9.8 9.5 87 1.1 NNW 9 19 5 10 993.7 993.7 0.0
29/09:00am 11.8 10.1 10.0 89 0.9 NNW 9 13 5 7 993.7 993.7 20.6
29/08:30am 11.7 10.4 10.1 90 0.8 E 7 9 4 5 992.9 992.9 20.6
29/08:00am 11.2 9.5 10.0 92 0.6 NW 9 13 5 7 993.4 993.4 20.6
29/07:50am 11.2 8.7 9.6 90 0.8 WNW 13 19 7 10 993.2 993.2 20.2
29/07:37am 11.6 7.9 10.0 90 0.8 WNW 20 28 11 15 993.0 993.0 20.2
29/07:30am 12.2 8.5 11.6 96 0.3 NNW 22 37 12 20 993.3 993.3 20.0
29/07:00am 12.3 7.9 11.7 96 0.3 NNE 26 37 14 20 992.7 992.7 18.2
29/06:48am 12.2 7.8 11.6 96 0.3 NNE 26 39 14 21 992.7 992.7 18.2
29/06:31am 12.4 7.3 11.8 96 0.3 NNE 30 41 16 22 992.9 992.9 17.6
29/06:30am 12.3 7.1 11.7 96 0.3 NNE 30 41 16 22 992.9 992.9 17.6
29/06:26am 12.2 7.0 11.6 96 0.3 NNE 30 41 16 22 992.7 992.7 17.6
29/06:14am 12.0 6.7 11.4 96 0.3 NNE 30 44 16 24 992.8 992.8 17.2
29/06:02am 12.1 6.5 11.5 96 0.3 NNE 32 44 17 24 992.9 992.9 16.2
29/06:00am 12.1 6.5 11.5 96 0.3 NE 32 44 17 24 992.9 992.9 16.2
29/05:30am 11.8 8.4 11.3 97 0.3 NNE 20 28 11 15 993.2 993.2 13.2
29/05:18am 11.7 6.7 11.1 96 0.3 NE 28 41 15 22 993.3 993.3 12.0
29/05:15am 11.8 6.9 11.2 96 0.3 NE 28 41 15 22 993.3 993.3 11.2
29/05:00am 11.8 7.6 11.2 96 0.3 NE 24 35 13 19 993.6 993.6 10.0
29/04:32am 11.9 7.6 10.8 93 0.6 NNE 24 35 13 19 994.3 994.3 7.8

Other Formats:

Comma delimited format used in spreadsheet applications
http://www.bom.gov.au/fwo/IDN60801/IDN60801.95896.axf

JavaScript Object Notation format (JSON) in row-major order
http://www.bom.gov.au/fwo/IDN60801/IDN60801.95896.json